sensor_id;sensor_type;location;lat;lon;timestamp;P1;durP1;ratioP1;P2;durP2;ratioP2
20725;SDS011;10524;48.132;8.518;2024-01-25T00:01:39;11.88;;;2.10;;
20725;SDS011;10524;48.132;8.518;2024-01-25T00:04:04;7.47;;;1.90;;
20725;SDS011;10524;48.132;8.518;2024-01-25T00:06:30;11.20;;;2.15;;
20725;SDS011;10524;48.132;8.518;2024-01-25T00:08:56;8.55;;;2.13;;
20725;SDS011;10524;48.132;8.518;2024-01-25T00:11:22;8.25;;;1.90;;
20725;SDS011;10524;48.132;8.518;2024-01-25T00:13:47;5.63;;;1.95;;
20725;SDS011;10524;48.132;8.518;2024-01-25T00:16:13;8.30;;;2.20;;
20725;SDS011;10524;48.132;8.518;2024-01-25T00:18:39;8.35;;;2.17;;
20725;SDS011;10524;48.132;8.518;2024-01-25T00:21:04;6.75;;;1.98;;
20725;SDS011;10524;48.132;8.518;2024-01-25T00:23:30;9.75;;;2.25;;
20725;SDS011;10524;48.132;8.518;2024-01-25T00:25:56;10.77;;;2.42;;
20725;SDS011;10524;48.132;8.518;2024-01-25T00:28:24;8.75;;;2.42;;
20725;SDS011;10524;48.132;8.518;2024-01-25T00:30:50;10.45;;;2.10;;
20725;SDS011;10524;48.132;8.518;2024-01-25T00:33:16;10.18;;;2.38;;
20725;SDS011;10524;48.132;8.518;2024-01-25T00:35:42;9.05;;;2.60;;
20725;SDS011;10524;48.132;8.518;2024-01-25T00:38:08;9.48;;;2.40;;
20725;SDS011;10524;48.132;8.518;2024-01-25T00:40:34;10.52;;;2.00;;
20725;SDS011;10524;48.132;8.518;2024-01-25T00:43:00;10.57;;;2.38;;
20725;SDS011;10524;48.132;8.518;2024-01-25T00:45:26;9.15;;;1.70;;
20725;SDS011;10524;48.132;8.518;2024-01-25T00:47:52;5.70;;;1.15;;
20725;SDS011;10524;48.132;8.518;2024-01-25T00:50:18;6.07;;;1.52;;
20725;SDS011;10524;48.132;8.518;2024-01-25T00:52:46;7.72;;;1.60;;
20725;SDS011;10524;48.132;8.518;2024-01-25T00:55:14;6.18;;;1.33;;
20725;SDS011;10524;48.132;8.518;2024-01-25T00:57:40;5.90;;;1.38;;
20725;SDS011;10524;48.132;8.518;2024-01-25T01:00:06;6.93;;;1.50;;
20725;SDS011;10524;48.132;8.518;2024-01-25T01:02:35;7.40;;;1.27;;
20725;SDS011;10524;48.132;8.518;2024-01-25T01:05:04;8.38;;;1.67;;
20725;SDS011;10524;48.132;8.518;2024-01-25T01:07:30;5.15;;;1.45;;
20725;SDS011;10524;48.132;8.518;2024-01-25T01:09:56;8.63;;;1.67;;
20725;SDS011;10524;48.132;8.518;2024-01-25T01:12:22;4.20;;;1.25;;
20725;SDS011;10524;48.132;8.518;2024-01-25T01:14:48;7.15;;;1.40;;
20725;SDS011;10524;48.132;8.518;2024-01-25T01:17:14;8.02;;;1.98;;
20725;SDS011;10524;48.132;8.518;2024-01-25T01:19:40;6.22;;;1.48;;
20725;SDS011;10524;48.132;8.518;2024-01-25T01:22:06;5.88;;;1.67;;
20725;SDS011;10524;48.132;8.518;2024-01-25T01:24:32;7.35;;;1.60;;
20725;SDS011;10524;48.132;8.518;2024-01-25T01:26:58;5.70;;;1.48;;
20725;SDS011;10524;48.132;8.518;2024-01-25T01:29:24;6.68;;;1.50;;
20725;SDS011;10524;48.132;8.518;2024-01-25T01:31:50;6.40;;;1.80;;
20725;SDS011;10524;48.132;8.518;2024-01-25T01:34:15;6.28;;;1.27;;
20725;SDS011;10524;48.132;8.518;2024-01-25T01:36:43;6.07;;;1.38;;
20725;SDS011;10524;48.132;8.518;2024-01-25T01:39:09;5.40;;;1.40;;
20725;SDS011;10524;48.132;8.518;2024-01-25T01:41:34;7.20;;;1.70;;
20725;SDS011;10524;48.132;8.518;2024-01-25T01:44:00;4.63;;;1.27;;
20725;SDS011;10524;48.132;8.518;2024-01-25T01:46:34;7.40;;;1.85;;
20725;SDS011;10524;48.132;8.518;2024-01-25T01:49:02;6.07;;;1.75;;
20725;SDS011;10524;48.132;8.518;2024-01-25T01:51:32;4.93;;;1.30;;
20725;SDS011;10524;48.132;8.518;2024-01-25T01:53:59;6.32;;;1.60;;
20725;SDS011;10524;48.132;8.518;2024-01-25T01:56:31;6.97;;;1.73;;
20725;SDS011;10524;48.132;8.518;2024-01-25T01:58:57;7.35;;;1.85;;
20725;SDS011;10524;48.132;8.518;2024-01-25T02:01:27;5.70;;;1.70;;
20725;SDS011;10524;48.132;8.518;2024-01-25T02:03:55;3.58;;;1.55;;
20725;SDS011;10524;48.132;8.518;2024-01-25T02:06:21;6.50;;;1.75;;
20725;SDS011;10524;48.132;8.518;2024-01-25T02:08:48;8.10;;;1.80;;
20725;SDS011;10524;48.132;8.518;2024-01-25T02:11:16;6.03;;;1.73;;
20725;SDS011;10524;48.132;8.518;2024-01-25T02:13:42;7.50;;;1.90;;
20725;SDS011;10524;48.132;8.518;2024-01-25T02:16:08;7.78;;;1.70;;
20725;SDS011;10524;48.132;8.518;2024-01-25T02:18:34;5.78;;;1.55;;
20725;SDS011;10524;48.132;8.518;2024-01-25T02:21:00;6.88;;;1.80;;
20725;SDS011;10524;48.132;8.518;2024-01-25T02:23:26;3.20;;;1.00;;
20725;SDS011;10524;48.132;8.518;2024-01-25T02:25:52;3.83;;;1.08;;
20725;SDS011;10524;48.132;8.518;2024-01-25T02:28:18;5.50;;;1.17;;
20725;SDS011;10524;48.132;8.518;2024-01-25T02:30:44;3.65;;;0.90;;
20725;SDS011;10524;48.132;8.518;2024-01-25T02:33:09;2.78;;;1.00;;
20725;SDS011;10524;48.132;8.518;2024-01-25T02:35:37;4.18;;;1.25;;
20725;SDS011;10524;48.132;8.518;2024-01-25T02:38:02;4.68;;;1.10;;
20725;SDS011;10524;48.132;8.518;2024-01-25T02:40:28;2.78;;;1.00;;
20725;SDS011;10524;48.132;8.518;2024-01-25T02:42:54;5.15;;;1.13;;
20725;SDS011;10524;48.132;8.518;2024-01-25T02:45:21;4.32;;;1.23;;
20725;SDS011;10524;48.132;8.518;2024-01-25T02:47:47;4.95;;;1.10;;
20725;SDS011;10524;48.132;8.518;2024-01-25T02:50:13;3.42;;;0.90;;
20725;SDS011;10524;48.132;8.518;2024-01-25T02:52:40;3.20;;;1.05;;
20725;SDS011;10524;48.132;8.518;2024-01-25T02:55:06;4.00;;;1.05;;
20725;SDS011;10524;48.132;8.518;2024-01-25T02:57:32;2.13;;;0.90;;
20725;SDS011;10524;48.132;8.518;2024-01-25T02:59:58;2.15;;;0.80;;
20725;SDS011;10524;48.132;8.518;2024-01-25T03:02:24;2.58;;;0.98;;
20725;SDS011;10524;48.132;8.518;2024-01-25T03:04:50;3.35;;;1.15;;
20725;SDS011;10524;48.132;8.518;2024-01-25T03:07:15;2.80;;;0.88;;
20725;SDS011;10524;48.132;8.518;2024-01-25T03:09:41;3.75;;;0.85;;
20725;SDS011;10524;48.132;8.518;2024-01-25T03:12:07;2.08;;;0.80;;
20725;SDS011;10524;48.132;8.518;2024-01-25T03:14:33;4.05;;;0.90;;
20725;SDS011;10524;48.132;8.518;2024-01-25T03:16:58;2.75;;;0.90;;
20725;SDS011;10524;48.132;8.518;2024-01-25T03:19:24;2.05;;;0.77;;
20725;SDS011;10524;48.132;8.518;2024-01-25T03:21:51;3.58;;;0.90;;
20725;SDS011;10524;48.132;8.518;2024-01-25T03:24:17;2.80;;;0.80;;
20725;SDS011;10524;48.132;8.518;2024-01-25T03:26:43;5.30;;;0.95;;
20725;SDS011;10524;48.132;8.518;2024-01-25T03:29:09;5.47;;;1.10;;
20725;SDS011;10524;48.132;8.518;2024-01-25T03:31:35;4.75;;;1.00;;
20725;SDS011;10524;48.132;8.518;2024-01-25T03:34:01;3.75;;;0.93;;
20725;SDS011;10524;48.132;8.518;2024-01-25T03:36:27;5.85;;;1.35;;
20725;SDS011;10524;48.132;8.518;2024-01-25T03:38:53;4.70;;;1.08;;
20725;SDS011;10524;48.132;8.518;2024-01-25T03:41:19;3.53;;;0.90;;
20725;SDS011;10524;48.132;8.518;2024-01-25T03:43:45;6.70;;;0.93;;
20725;SDS011;10524;48.132;8.518;2024-01-25T03:46:13;4.70;;;1.45;;
20725;SDS011;10524;48.132;8.518;2024-01-25T03:48:39;2.97;;;1.00;;
20725;SDS011;10524;48.132;8.518;2024-01-25T03:51:05;3.58;;;0.80;;
20725;SDS011;10524;48.132;8.518;2024-01-25T03:53:31;4.47;;;1.10;;
20725;SDS011;10524;48.132;8.518;2024-01-25T03:55:56;5.72;;;1.05;;
20725;SDS011;10524;48.132;8.518;2024-01-25T03:58:22;4.45;;;1.00;;
20725;SDS011;10524;48.132;8.518;2024-01-25T04:00:48;3.55;;;1.00;;
20725;SDS011;10524;48.132;8.518;2024-01-25T04:03:14;3.65;;;0.80;;
20725;SDS011;10524;48.132;8.518;2024-01-25T04:05:39;3.42;;;0.85;;
20725;SDS011;10524;48.132;8.518;2024-01-25T04:08:05;3.83;;;1.17;;
20725;SDS011;10524;48.132;8.518;2024-01-25T04:10:31;3.28;;;1.02;;
20725;SDS011;10524;48.132;8.518;2024-01-25T04:12:58;3.53;;;1.00;;
20725;SDS011;10524;48.132;8.518;2024-01-25T04:15:26;3.58;;;1.00;;
20725;SDS011;10524;48.132;8.518;2024-01-25T04:17:51;6.68;;;1.17;;
20725;SDS011;10524;48.132;8.518;2024-01-25T04:20:18;5.65;;;0.95;;
20725;SDS011;10524;48.132;8.518;2024-01-25T04:22:44;4.03;;;1.02;;
20725;SDS011;10524;48.132;8.518;2024-01-25T04:25:10;4.00;;;1.00;;
20725;SDS011;10524;48.132;8.518;2024-01-25T04:27:39;2.45;;;0.80;;
20725;SDS011;10524;48.132;8.518;2024-01-25T04:30:06;3.45;;;0.90;;
20725;SDS011;10524;48.132;8.518;2024-01-25T04:32:32;5.82;;;0.90;;
20725;SDS011;10524;48.132;8.518;2024-01-25T04:34:58;3.85;;;1.20;;
20725;SDS011;10524;48.132;8.518;2024-01-25T04:37:24;3.38;;;1.15;;
20725;SDS011;10524;48.132;8.518;2024-01-25T04:39:50;3.58;;;0.90;;
20725;SDS011;10524;48.132;8.518;2024-01-25T04:42:15;2.35;;;0.90;;
20725;SDS011;10524;48.132;8.518;2024-01-25T04:44:41;4.15;;;0.90;;
20725;SDS011;10524;48.132;8.518;2024-01-25T04:47:07;4.38;;;1.00;;
20725;SDS011;10524;48.132;8.518;2024-01-25T04:49:33;2.78;;;0.70;;
20725;SDS011;10524;48.132;8.518;2024-01-25T04:51:59;2.28;;;0.73;;
20725;SDS011;10524;48.132;8.518;2024-01-25T04:54:25;3.42;;;0.90;;
20725;SDS011;10524;48.132;8.518;2024-01-25T04:56:51;1.30;;;0.63;;
20725;SDS011;10524;48.132;8.518;2024-01-25T04:59:17;2.83;;;0.80;;
20725;SDS011;10524;48.132;8.518;2024-01-25T05:01:43;2.97;;;0.80;;
20725;SDS011;10524;48.132;8.518;2024-01-25T05:04:09;3.45;;;0.80;;
20725;SDS011;10524;48.132;8.518;2024-01-25T05:06:34;1.95;;;0.60;;
20725;SDS011;10524;48.132;8.518;2024-01-25T05:09:00;4.57;;;0.90;;
20725;SDS011;10524;48.132;8.518;2024-01-25T05:11:26;2.95;;;0.75;;
20725;SDS011;10524;48.132;8.518;2024-01-25T05:13:51;1.63;;;0.70;;
20725;SDS011;10524;48.132;8.518;2024-01-25T05:16:17;1.45;;;0.65;;
20725;SDS011;10524;48.132;8.518;2024-01-25T05:18:43;3.45;;;0.98;;
20725;SDS011;10524;48.132;8.518;2024-01-25T05:21:08;2.22;;;0.90;;
20725;SDS011;10524;48.132;8.518;2024-01-25T05:23:35;3.67;;;0.73;;
20725;SDS011;10524;48.132;8.518;2024-01-25T05:26:01;3.20;;;0.70;;
20725;SDS011;10524;48.132;8.518;2024-01-25T05:28:27;4.18;;;1.20;;
20725;SDS011;10524;48.132;8.518;2024-01-25T05:30:52;3.97;;;0.88;;
20725;SDS011;10524;48.132;8.518;2024-01-25T05:33:18;5.47;;;1.00;;
20725;SDS011;10524;48.132;8.518;2024-01-25T05:35:44;5.43;;;1.02;;
20725;SDS011;10524;48.132;8.518;2024-01-25T05:38:10;3.30;;;0.93;;
20725;SDS011;10524;48.132;8.518;2024-01-25T05:40:35;6.05;;;1.40;;
20725;SDS011;10524;48.132;8.518;2024-01-25T05:43:01;3.97;;;1.10;;
20725;SDS011;10524;48.132;8.518;2024-01-25T05:45:28;5.57;;;0.90;;
20725;SDS011;10524;48.132;8.518;2024-01-25T05:47:53;6.57;;;1.30;;
20725;SDS011;10524;48.132;8.518;2024-01-25T05:50:19;3.92;;;1.00;;
20725;SDS011;10524;48.132;8.518;2024-01-25T05:52:45;3.05;;;1.02;;
20725;SDS011;10524;48.132;8.518;2024-01-25T05:55:11;4.00;;;1.00;;
20725;SDS011;10524;48.132;8.518;2024-01-25T05:57:39;6.30;;;1.45;;
20725;SDS011;10524;48.132;8.518;2024-01-25T06:00:05;2.25;;;0.95;;
20725;SDS011;10524;48.132;8.518;2024-01-25T06:02:33;2.50;;;1.23;;
20725;SDS011;10524;48.132;8.518;2024-01-25T06:04:59;2.88;;;0.98;;
20725;SDS011;10524;48.132;8.518;2024-01-25T06:07:25;2.88;;;0.90;;
20725;SDS011;10524;48.132;8.518;2024-01-25T06:09:52;2.83;;;0.95;;
20725;SDS011;10524;48.132;8.518;2024-01-25T06:12:18;3.92;;;1.17;;
20725;SDS011;10524;48.132;8.518;2024-01-25T06:14:43;3.80;;;1.00;;
20725;SDS011;10524;48.132;8.518;2024-01-25T06:17:09;3.95;;;1.10;;
20725;SDS011;10524;48.132;8.518;2024-01-25T06:19:35;1.98;;;1.08;;
20725;SDS011;10524;48.132;8.518;2024-01-25T06:22:01;2.92;;;1.17;;
20725;SDS011;10524;48.132;8.518;2024-01-25T06:24:28;4.90;;;1.30;;
20725;SDS011;10524;48.132;8.518;2024-01-25T06:26:54;3.00;;;1.10;;
20725;SDS011;10524;48.132;8.518;2024-01-25T06:29:20;2.38;;;1.13;;
20725;SDS011;10524;48.132;8.518;2024-01-25T06:31:45;3.40;;;1.20;;
20725;SDS011;10524;48.132;8.518;2024-01-25T06:34:11;4.68;;;1.20;;
20725;SDS011;10524;48.132;8.518;2024-01-25T06:36:38;1.98;;;0.98;;
20725;SDS011;10524;48.132;8.518;2024-01-25T06:39:04;2.85;;;0.80;;
20725;SDS011;10524;48.132;8.518;2024-01-25T06:41:30;2.45;;;0.82;;
20725;SDS011;10524;48.132;8.518;2024-01-25T06:43:56;1.33;;;0.73;;
20725;SDS011;10524;48.132;8.518;2024-01-25T06:46:22;2.47;;;0.80;;
20725;SDS011;10524;48.132;8.518;2024-01-25T06:48:48;1.75;;;0.90;;
20725;SDS011;10524;48.132;8.518;2024-01-25T06:51:15;3.20;;;0.80;;
20725;SDS011;10524;48.132;8.518;2024-01-25T06:53:41;3.40;;;1.10;;
20725;SDS011;10524;48.132;8.518;2024-01-25T06:56:07;2.65;;;1.15;;
20725;SDS011;10524;48.132;8.518;2024-01-25T06:58:33;1.25;;;1.05;;
20725;SDS011;10524;48.132;8.518;2024-01-25T07:01:01;3.47;;;1.02;;
20725;SDS011;10524;48.132;8.518;2024-01-25T07:03:27;3.15;;;1.10;;
20725;SDS011;10524;48.132;8.518;2024-01-25T07:05:53;1.52;;;1.00;;
20725;SDS011;10524;48.132;8.518;2024-01-25T07:08:19;1.80;;;0.90;;
20725;SDS011;10524;48.132;8.518;2024-01-25T07:10:45;2.63;;;0.90;;
20725;SDS011;10524;48.132;8.518;2024-01-25T07:13:10;4.82;;;0.90;;
20725;SDS011;10524;48.132;8.518;2024-01-25T07:15:36;1.67;;;0.80;;
20725;SDS011;10524;48.132;8.518;2024-01-25T07:18:02;1.33;;;0.80;;
20725;SDS011;10524;48.132;8.518;2024-01-25T07:20:28;4.60;;;1.05;;
20725;SDS011;10524;48.132;8.518;2024-01-25T07:22:54;2.67;;;0.80;;
20725;SDS011;10524;48.132;8.518;2024-01-25T07:25:20;1.67;;;0.90;;
20725;SDS011;10524;48.132;8.518;2024-01-25T07:27:46;2.88;;;0.80;;
20725;SDS011;10524;48.132;8.518;2024-01-25T07:30:12;1.98;;;1.20;;
20725;SDS011;10524;48.132;8.518;2024-01-25T07:32:39;1.65;;;0.73;;
20725;SDS011;10524;48.132;8.518;2024-01-25T07:35:07;1.15;;;0.73;;
20725;SDS011;10524;48.132;8.518;2024-01-25T07:37:35;2.88;;;0.80;;
20725;SDS011;10524;48.132;8.518;2024-01-25T07:40:01;1.65;;;0.80;;
20725;SDS011;10524;48.132;8.518;2024-01-25T07:42:29;3.38;;;0.80;;
20725;SDS011;10524;48.132;8.518;2024-01-25T07:44:54;2.42;;;0.80;;
20725;SDS011;10524;48.132;8.518;2024-01-25T07:47:20;2.80;;;0.82;;
20725;SDS011;10524;48.132;8.518;2024-01-25T07:49:46;2.90;;;1.33;;
20725;SDS011;10524;48.132;8.518;2024-01-25T07:52:12;4.00;;;1.92;;
20725;SDS011;10524;48.132;8.518;2024-01-25T07:54:38;3.25;;;1.60;;
20725;SDS011;10524;48.132;8.518;2024-01-25T07:57:04;2.53;;;1.13;;
20725;SDS011;10524;48.132;8.518;2024-01-25T07:59:30;3.10;;;1.17;;
20725;SDS011;10524;48.132;8.518;2024-01-25T08:01:56;3.42;;;1.33;;
20725;SDS011;10524;48.132;8.518;2024-01-25T08:04:21;7.57;;;1.40;;
20725;SDS011;10524;48.132;8.518;2024-01-25T08:06:47;4.22;;;1.40;;
20725;SDS011;10524;48.132;8.518;2024-01-25T08:09:13;4.07;;;1.48;;
20725;SDS011;10524;48.132;8.518;2024-01-25T08:11:39;5.22;;;1.63;;
20725;SDS011;10524;48.132;8.518;2024-01-25T08:14:05;5.63;;;1.70;;
20725;SDS011;10524;48.132;8.518;2024-01-25T08:16:31;7.10;;;1.98;;
20725;SDS011;10524;48.132;8.518;2024-01-25T08:18:57;7.68;;;2.50;;
20725;SDS011;10524;48.132;8.518;2024-01-25T08:21:24;9.57;;;2.28;;
20725;SDS011;10524;48.132;8.518;2024-01-25T08:23:49;17.50;;;5.45;;
20725;SDS011;10524;48.132;8.518;2024-01-25T08:26:15;10.65;;;4.75;;
20725;SDS011;10524;48.132;8.518;2024-01-25T08:28:41;16.77;;;6.55;;
20725;SDS011;10524;48.132;8.518;2024-01-25T08:31:10;9.30;;;1.98;;
20725;SDS011;10524;48.132;8.518;2024-01-25T08:33:37;10.23;;;2.20;;
20725;SDS011;10524;48.132;8.518;2024-01-25T08:36:07;5.53;;;1.90;;
20725;SDS011;10524;48.132;8.518;2024-01-25T08:38:32;6.05;;;1.80;;
20725;SDS011;10524;48.132;8.518;2024-01-25T08:40:58;4.60;;;1.55;;
20725;SDS011;10524;48.132;8.518;2024-01-25T08:43:24;7.50;;;1.73;;
20725;SDS011;10524;48.132;8.518;2024-01-25T08:45:50;6.28;;;2.28;;
20725;SDS011;10524;48.132;8.518;2024-01-25T08:48:15;6.38;;;2.05;;
20725;SDS011;10524;48.132;8.518;2024-01-25T08:50:41;8.82;;;1.85;;
20725;SDS011;10524;48.132;8.518;2024-01-25T08:53:07;8.20;;;1.83;;
20725;SDS011;10524;48.132;8.518;2024-01-25T08:55:33;8.32;;;1.90;;
20725;SDS011;10524;48.132;8.518;2024-01-25T08:57:59;7.75;;;1.85;;
20725;SDS011;10524;48.132;8.518;2024-01-25T09:00:24;11.63;;;5.80;;
20725;SDS011;10524;48.132;8.518;2024-01-25T09:02:50;11.48;;;3.50;;
20725;SDS011;10524;48.132;8.518;2024-01-25T09:05:16;7.95;;;2.67;;
20725;SDS011;10524;48.132;8.518;2024-01-25T09:07:42;7.85;;;1.88;;
20725;SDS011;10524;48.132;8.518;2024-01-25T09:10:08;6.95;;;2.25;;
20725;SDS011;10524;48.132;8.518;2024-01-25T09:12:34;9.48;;;3.38;;
20725;SDS011;10524;48.132;8.518;2024-01-25T09:15:01;4.45;;;2.00;;
20725;SDS011;10524;48.132;8.518;2024-01-25T09:17:27;5.60;;;1.88;;
20725;SDS011;10524;48.132;8.518;2024-01-25T09:19:52;9.15;;;3.17;;
20725;SDS011;10524;48.132;8.518;2024-01-25T09:22:18;5.05;;;2.63;;
20725;SDS011;10524;48.132;8.518;2024-01-25T09:24:47;4.55;;;1.52;;
20725;SDS011;10524;48.132;8.518;2024-01-25T09:27:13;4.25;;;1.80;;
20725;SDS011;10524;48.132;8.518;2024-01-25T09:29:40;8.05;;;2.95;;
20725;SDS011;10524;48.132;8.518;2024-01-25T09:32:06;4.93;;;2.03;;
20725;SDS011;10524;48.132;8.518;2024-01-25T09:34:33;4.70;;;2.70;;
20725;SDS011;10524;48.132;8.518;2024-01-25T09:37:03;5.53;;;2.58;;
20725;SDS011;10524;48.132;8.518;2024-01-25T09:39:29;6.22;;;3.38;;
20725;SDS011;10524;48.132;8.518;2024-01-25T09:41:56;5.00;;;2.60;;
20725;SDS011;10524;48.132;8.518;2024-01-25T09:44:22;3.30;;;2.20;;
20725;SDS011;10524;48.132;8.518;2024-01-25T09:46:47;4.28;;;1.98;;
20725;SDS011;10524;48.132;8.518;2024-01-25T09:49:13;4.25;;;1.75;;
20725;SDS011;10524;48.132;8.518;2024-01-25T09:51:40;5.38;;;1.80;;
20725;SDS011;10524;48.132;8.518;2024-01-25T09:54:07;3.85;;;1.60;;
20725;SDS011;10524;48.132;8.518;2024-01-25T09:56:33;4.28;;;1.20;;
20725;SDS011;10524;48.132;8.518;2024-01-25T09:58:59;2.88;;;1.15;;
20725;SDS011;10524;48.132;8.518;2024-01-25T10:01:26;2.33;;;1.75;;
20725;SDS011;10524;48.132;8.518;2024-01-25T10:03:52;6.18;;;4.70;;
20725;SDS011;10524;48.132;8.518;2024-01-25T10:06:18;9.00;;;4.38;;
20725;SDS011;10524;48.132;8.518;2024-01-25T10:08:44;3.40;;;1.30;;
20725;SDS011;10524;48.132;8.518;2024-01-25T10:11:10;3.03;;;1.60;;
20725;SDS011;10524;48.132;8.518;2024-01-25T10:13:40;2.70;;;1.60;;
20725;SDS011;10524;48.132;8.518;2024-01-25T10:16:16;4.15;;;1.50;;
20725;SDS011;10524;48.132;8.518;2024-01-25T10:18:43;2.20;;;1.23;;
20725;SDS011;10524;48.132;8.518;2024-01-25T10:21:12;3.00;;;1.10;;
20725;SDS011;10524;48.132;8.518;2024-01-25T10:23:39;2.65;;;0.98;;
20725;SDS011;10524;48.132;8.518;2024-01-25T10:26:05;1.77;;;0.82;;
20725;SDS011;10524;48.132;8.518;2024-01-25T10:28:33;1.38;;;1.10;;
20725;SDS011;10524;48.132;8.518;2024-01-25T10:31:01;1.85;;;1.00;;
20725;SDS011;10524;48.132;8.518;2024-01-25T10:33:29;0.93;;;0.80;;
20725;SDS011;10524;48.132;8.518;2024-01-25T10:35:56;2.08;;;1.40;;
20725;SDS011;10524;48.132;8.518;2024-01-25T10:38:34;1.67;;;1.27;;
20725;SDS011;10524;48.132;8.518;2024-01-25T10:41:02;2.47;;;1.38;;
20725;SDS011;10524;48.132;8.518;2024-01-25T10:43:29;1.70;;;1.35;;
20725;SDS011;10524;48.132;8.518;2024-01-25T10:45:58;2.00;;;1.45;;
20725;SDS011;10524;48.132;8.518;2024-01-25T10:48:28;1.30;;;1.20;;
20725;SDS011;10524;48.132;8.518;2024-01-25T10:50:56;1.20;;;1.10;;
20725;SDS011;10524;48.132;8.518;2024-01-25T10:53:24;1.77;;;0.80;;
20725;SDS011;10524;48.132;8.518;2024-01-25T10:55:51;1.15;;;1.00;;
20725;SDS011;10524;48.132;8.518;2024-01-25T10:58:18;1.70;;;1.60;;
20725;SDS011;10524;48.132;8.518;2024-01-25T11:00:56;1.10;;;1.00;;
20725;SDS011;10524;48.132;8.518;2024-01-25T11:03:27;1.00;;;0.90;;
20725;SDS011;10524;48.132;8.518;2024-01-25T11:06:09;1.23;;;1.00;;
20725;SDS011;10524;48.132;8.518;2024-01-25T11:08:38;0.75;;;0.75;;
20725;SDS011;10524;48.132;8.518;2024-01-25T11:11:08;2.63;;;1.00;;
20725;SDS011;10524;48.132;8.518;2024-01-25T11:13:38;1.02;;;0.90;;
20725;SDS011;10524;48.132;8.518;2024-01-25T11:16:15;2.17;;;1.10;;
20725;SDS011;10524;48.132;8.518;2024-01-25T11:18:51;1.23;;;1.02;;
20725;SDS011;10524;48.132;8.518;2024-01-25T11:26:49;1.50;;;1.40;;
20725;SDS011;10524;48.132;8.518;2024-01-25T11:29:15;2.55;;;2.35;;
20725;SDS011;10524;48.132;8.518;2024-01-25T11:31:45;1.05;;;0.73;;
20725;SDS011;10524;48.132;8.518;2024-01-25T11:34:11;1.92;;;1.83;;
20725;SDS011;10524;48.132;8.518;2024-01-25T11:36:38;1.70;;;1.30;;
20725;SDS011;10524;48.132;8.518;2024-01-25T11:39:04;1.80;;;1.35;;
20725;SDS011;10524;48.132;8.518;2024-01-25T11:41:31;2.90;;;1.92;;
20725;SDS011;10524;48.132;8.518;2024-01-25T11:43:57;5.00;;;3.85;;
20725;SDS011;10524;48.132;8.518;2024-01-25T11:46:23;2.03;;;1.83;;
20725;SDS011;10524;48.132;8.518;2024-01-25T11:48:50;2.05;;;1.67;;
20725;SDS011;10524;48.132;8.518;2024-01-25T11:51:15;3.67;;;3.33;;
20725;SDS011;10524;48.132;8.518;2024-01-25T11:53:41;2.22;;;2.00;;
20725;SDS011;10524;48.132;8.518;2024-01-25T11:56:08;1.02;;;0.93;;
20725;SDS011;10524;48.132;8.518;2024-01-25T11:58:39;1.30;;;1.08;;
20725;SDS011;10524;48.132;8.518;2024-01-25T12:01:05;1.30;;;1.13;;
20725;SDS011;10524;48.132;8.518;2024-01-25T12:03:34;0.75;;;0.60;;
20725;SDS011;10524;48.132;8.518;2024-01-25T12:06:01;0.50;;;0.50;;
20725;SDS011;10524;48.132;8.518;2024-01-25T12:08:29;2.33;;;2.13;;
20725;SDS011;10524;48.132;8.518;2024-01-25T12:11:06;1.75;;;1.65;;
20725;SDS011;10524;48.132;8.518;2024-01-25T12:13:38;4.80;;;4.40;;
20725;SDS011;10524;48.132;8.518;2024-01-25T12:16:05;1.48;;;1.38;;
20725;SDS011;10524;48.132;8.518;2024-01-25T12:18:32;0.70;;;0.70;;
20725;SDS011;10524;48.132;8.518;2024-01-25T12:21:00;2.38;;;2.17;;
20725;SDS011;10524;48.132;8.518;2024-01-25T12:23:33;0.50;;;0.50;;
20725;SDS011;10524;48.132;8.518;2024-01-25T12:26:00;1.98;;;1.88;;
20725;SDS011;10524;48.132;8.518;2024-01-25T12:28:29;0.82;;;0.70;;
20725;SDS011;10524;48.132;8.518;2024-01-25T12:30:55;0.45;;;0.40;;
20725;SDS011;10524;48.132;8.518;2024-01-25T12:33:21;0.50;;;0.30;;
20725;SDS011;10524;48.132;8.518;2024-01-25T12:35:47;3.03;;;2.00;;
20725;SDS011;10524;48.132;8.518;2024-01-25T12:38:13;1.02;;;0.70;;
20725;SDS011;10524;48.132;8.518;2024-01-25T12:40:38;1.00;;;0.30;;
20725;SDS011;10524;48.132;8.518;2024-01-25T12:43:06;0.32;;;0.30;;
20725;SDS011;10524;48.132;8.518;2024-01-25T12:45:32;0.70;;;0.70;;
20725;SDS011;10524;48.132;8.518;2024-01-25T12:47:58;1.13;;;1.02;;
20725;SDS011;10524;48.132;8.518;2024-01-25T12:50:23;1.73;;;1.50;;
20725;SDS011;10524;48.132;8.518;2024-01-25T12:52:49;0.47;;;0.40;;
20725;SDS011;10524;48.132;8.518;2024-01-25T12:55:16;0.50;;;0.50;;
20725;SDS011;10524;48.132;8.518;2024-01-25T12:57:41;0.70;;;0.60;;
20725;SDS011;10524;48.132;8.518;2024-01-25T13:00:07;0.50;;;0.50;;
20725;SDS011;10524;48.132;8.518;2024-01-25T13:02:33;0.35;;;0.35;;
20725;SDS011;10524;48.132;8.518;2024-01-25T13:04:59;0.20;;;0.20;;
20725;SDS011;10524;48.132;8.518;2024-01-25T13:07:25;0.43;;;0.43;;
20725;SDS011;10524;48.132;8.518;2024-01-25T13:09:50;0.20;;;0.20;;
20725;SDS011;10524;48.132;8.518;2024-01-25T13:12:16;0.13;;;0.13;;
20725;SDS011;10524;48.132;8.518;2024-01-25T13:14:42;0.57;;;0.57;;
20725;SDS011;10524;48.132;8.518;2024-01-25T13:17:08;0.50;;;0.50;;
20725;SDS011;10524;48.132;8.518;2024-01-25T13:19:34;0.50;;;0.40;;
20725;SDS011;10524;48.132;8.518;2024-01-25T13:21:59;1.52;;;0.30;;
20725;SDS011;10524;48.132;8.518;2024-01-25T13:24:25;0.65;;;0.50;;
20725;SDS011;10524;48.132;8.518;2024-01-25T13:26:51;0.20;;;0.20;;
20725;SDS011;10524;48.132;8.518;2024-01-25T13:29:17;0.68;;;0.50;;
20725;SDS011;10524;48.132;8.518;2024-01-25T13:31:42;0.43;;;0.32;;
20725;SDS011;10524;48.132;8.518;2024-01-25T13:34:08;0.65;;;0.40;;
20725;SDS011;10524;48.132;8.518;2024-01-25T13:36:34;0.40;;;0.40;;
20725;SDS011;10524;48.132;8.518;2024-01-25T13:38:59;0.40;;;0.40;;
20725;SDS011;10524;48.132;8.518;2024-01-25T13:41:26;1.33;;;0.32;;
20725;SDS011;10524;48.132;8.518;2024-01-25T13:43:52;0.30;;;0.30;;
20725;SDS011;10524;48.132;8.518;2024-01-25T13:46:18;0.20;;;0.20;;
20725;SDS011;10524;48.132;8.518;2024-01-25T13:48:44;0.50;;;0.50;;
20725;SDS011;10524;48.132;8.518;2024-01-25T13:51:10;0.47;;;0.47;;
20725;SDS011;10524;48.132;8.518;2024-01-25T13:53:37;0.57;;;0.43;;
20725;SDS011;10524;48.132;8.518;2024-01-25T13:56:03;0.35;;;0.30;;
20725;SDS011;10524;48.132;8.518;2024-01-25T13:58:29;0.40;;;0.30;;
20725;SDS011;10524;48.132;8.518;2024-01-25T14:00:54;0.60;;;0.40;;
20725;SDS011;10524;48.132;8.518;2024-01-25T14:03:20;1.20;;;0.50;;
20725;SDS011;10524;48.132;8.518;2024-01-25T14:05:46;0.95;;;0.50;;
20725;SDS011;10524;48.132;8.518;2024-01-25T14:08:12;1.02;;;0.60;;
20725;SDS011;10524;48.132;8.518;2024-01-25T14:10:38;0.57;;;0.50;;
20725;SDS011;10524;48.132;8.518;2024-01-25T14:13:03;0.57;;;0.45;;
20725;SDS011;10524;48.132;8.518;2024-01-25T14:15:29;2.13;;;0.40;;
20725;SDS011;10524;48.132;8.518;2024-01-25T14:17:55;0.88;;;0.57;;
20725;SDS011;10524;48.132;8.518;2024-01-25T14:20:20;0.65;;;0.40;;
20725;SDS011;10524;48.132;8.518;2024-01-25T14:22:48;0.73;;;0.50;;
20725;SDS011;10524;48.132;8.518;2024-01-25T14:25:13;0.57;;;0.40;;
20725;SDS011;10524;48.132;8.518;2024-01-25T14:27:39;0.47;;;0.40;;
20725;SDS011;10524;48.132;8.518;2024-01-25T14:30:05;2.50;;;1.50;;
20725;SDS011;10524;48.132;8.518;2024-01-25T14:32:32;0.60;;;0.50;;
20725;SDS011;10524;48.132;8.518;2024-01-25T14:34:58;5.07;;;4.57;;
20725;SDS011;10524;48.132;8.518;2024-01-25T14:37:24;6.65;;;5.90;;
20725;SDS011;10524;48.132;8.518;2024-01-25T14:39:49;0.82;;;0.82;;
20725;SDS011;10524;48.132;8.518;2024-01-25T14:42:15;1.20;;;0.60;;
20725;SDS011;10524;48.132;8.518;2024-01-25T14:44:44;0.98;;;0.60;;
20725;SDS011;10524;48.132;8.518;2024-01-25T14:47:09;3.30;;;0.85;;
20725;SDS011;10524;48.132;8.518;2024-01-25T14:49:37;0.80;;;0.60;;